createdAt,value
2022-11-14T00:01:29.375Z,49.37
2022-11-14T00:03:57.602Z,49.70
2022-11-14T00:06:25.802Z,53.83
2022-11-14T00:08:54.008Z,61.83
2022-11-14T00:11:22.235Z,54.10
2022-11-14T00:13:50.440Z,54.30
2022-11-14T00:16:18.664Z,47.50
2022-11-14T00:18:48.253Z,50.17
2022-11-14T00:21:16.485Z,50.33
2022-11-14T00:23:44.652Z,55.53
2022-11-14T00:26:12.897Z,54.87
2022-11-14T00:28:41.103Z,60.33
2022-11-14T00:31:10.883Z,60.50
2022-11-14T00:33:39.808Z,58.03
2022-11-14T00:36:10.101Z,69.80
2022-11-14T00:38:38.308Z,59.97
2022-11-14T00:41:06.961Z,62.20
2022-11-14T00:43:35.128Z,61.47
2022-11-14T00:46:03.368Z,64.93
2022-11-14T00:48:32.119Z,63.87
2022-11-14T00:51:00.479Z,65.70
2022-11-14T00:53:30.100Z,62.10
2022-11-14T00:55:58.375Z,64.50
2022-11-14T00:58:26.803Z,77.27
2022-11-14T01:00:56.524Z,85.03
2022-11-14T01:03:24.968Z,78.93
2022-11-14T01:05:53.525Z,71.97
2022-11-14T01:08:21.793Z,69.17
2022-11-14T01:10:52.350Z,71.53
2022-11-14T01:13:20.939Z,71.93
2022-11-14T01:15:50.821Z,82.50
2022-11-14T01:18:21.259Z,77.63
2022-11-14T01:20:50.466Z,70.73
2022-11-14T01:23:18.923Z,74.83
2022-11-14T01:25:47.438Z,68.37
2022-11-14T01:28:20.027Z,81.37
2022-11-14T01:30:48.247Z,80.90
2022-11-14T01:33:16.487Z,76.60
2022-11-14T01:35:44.670Z,80.27
2022-11-14T01:38:15.787Z,86.77
2022-11-14T01:40:45.873Z,91.60
2022-11-14T01:43:27.946Z,86.70
2022-11-14T01:46:00.695Z,85.13
2022-11-14T01:48:37.387Z,80.87
2022-11-14T01:51:19.066Z,82.70
2022-11-14T01:53:49.861Z,80.20
2022-11-14T01:56:27.184Z,77.67
2022-11-14T01:59:04.095Z,86.33
2022-11-14T02:01:36.927Z,88.60
2022-11-14T02:04:08.886Z,79.47
2022-11-14T02:06:41.446Z,77.33
2022-11-14T02:09:09.760Z,77.33
2022-11-14T02:11:41.670Z,91.20
2022-11-14T02:14:11.927Z,89.23
2022-11-14T02:16:51.709Z,90.23
2022-11-14T02:19:43.468Z,79.07
2022-11-14T02:22:13.034Z,75.57
2022-11-14T02:24:41.323Z,76.57
2022-11-14T02:27:11.375Z,81.57
2022-11-14T02:29:41.747Z,77.30
2022-11-14T02:32:11.031Z,69.23
2022-11-14T02:34:39.963Z,75.23
2022-11-14T02:37:09.155Z,68.87
2022-11-14T02:39:39.273Z,74.60
2022-11-14T02:42:07.782Z,72.47
2022-11-14T02:44:35.956Z,81.67
2022-11-14T02:47:04.246Z,75.53
2022-11-14T02:49:32.413Z,74.93
2022-11-14T02:52:00.585Z,73.33
2022-11-14T02:54:28.806Z,68.43
2022-11-14T02:56:58.354Z,79.13
2022-11-14T02:59:26.533Z,78.37
2022-11-14T03:01:57.285Z,82.63
2022-11-14T03:04:25.501Z,86.63
2022-11-14T03:06:53.717Z,77.27
2022-11-14T03:09:21.972Z,76.93
2022-11-14T03:11:50.712Z,77.43
2022-11-14T03:14:20.293Z,77.67
2022-11-14T03:16:48.525Z,73.63
2022-11-14T03:19:16.773Z,75.97
2022-11-14T03:21:46.194Z,76.70
2022-11-14T03:24:16.932Z,76.60
2022-11-14T03:26:45.128Z,81.83
2022-11-14T03:29:13.341Z,77.03
2022-11-14T03:31:42.955Z,80.40
2022-11-14T03:34:11.717Z,77.03
2022-11-14T03:36:40.713Z,72.30
2022-11-14T03:39:09.181Z,72.70
2022-11-14T03:41:37.373Z,76.60
2022-11-14T03:44:05.860Z,69.20
2022-11-14T03:46:33.986Z,69.43
2022-11-14T03:49:03.574Z,69.03
2022-11-14T03:51:31.807Z,68.67
2022-11-14T03:54:00.034Z,70.17
2022-11-14T03:56:28.284Z,68.53
2022-11-14T03:58:56.484Z,69.70
2022-11-14T04:01:24.785Z,67.90
2022-11-14T04:03:53.539Z,65.20
2022-11-14T04:06:23.569Z,62.40
2022-11-14T04:08:52.376Z,67.03
2022-11-14T04:11:21.122Z,64.03
2022-11-14T04:13:49.327Z,58.77
2022-11-14T04:16:17.456Z,62.80
2022-11-14T04:18:45.690Z,64.47
2022-11-14T04:21:14.158Z,62.93
2022-11-14T04:23:43.685Z,61.33
2022-11-14T04:26:12.079Z,65.23
2022-11-14T04:28:40.361Z,61.03
2022-11-14T04:31:08.814Z,64.87
2022-11-14T04:33:37.361Z,65.13
2022-11-14T04:36:06.266Z,62.40
2022-11-14T04:38:34.544Z,60.50
2022-11-14T04:41:04.290Z,65.07
2022-11-14T04:43:32.595Z,60.57
2022-11-14T04:46:00.743Z,61.87
2022-11-14T04:48:29.176Z,66.60
2022-11-14T04:50:57.642Z,67.47
2022-11-14T04:53:25.835Z,59.47
2022-11-14T04:55:54.025Z,67.33
2022-11-14T04:58:23.604Z,63.93
2022-11-14T05:00:51.844Z,67.07
2022-11-14T05:03:20.051Z,65.93
2022-11-14T05:05:48.261Z,66.10
2022-11-14T05:08:16.408Z,64.73
2022-11-14T05:10:45.409Z,64.87
2022-11-14T05:13:14.282Z,63.40
2022-11-14T05:15:43.892Z,66.00
2022-11-14T05:18:13.248Z,63.77
2022-11-14T05:20:41.497Z,68.43
2022-11-14T05:23:20.600Z,63.73
2022-11-14T05:25:48.980Z,61.10
2022-11-14T05:28:17.178Z,64.77
2022-11-14T05:30:46.893Z,62.63
2022-11-14T05:33:15.085Z,65.10
2022-11-14T05:35:43.306Z,64.30
2022-11-14T05:38:13.832Z,66.90
2022-11-14T05:40:41.974Z,66.93
2022-11-14T05:43:10.143Z,64.57
2022-11-14T05:45:38.371Z,68.07
2022-11-14T05:48:08.182Z,66.73
2022-11-14T05:50:36.345Z,65.30
2022-11-14T05:53:04.621Z,68.10
2022-11-14T05:55:32.847Z,70.43
2022-11-14T05:58:01.506Z,68.23
2022-11-14T06:00:29.910Z,73.07
2022-11-14T06:02:58.538Z,65.13
2022-11-14T06:05:28.148Z,66.63
2022-11-14T06:07:57.648Z,76.27
2022-11-14T06:10:29.458Z,69.33
2022-11-14T06:12:57.690Z,69.33
2022-11-14T06:15:25.831Z,75.60
2022-11-14T06:17:54.629Z,66.07
2022-11-14T06:20:23.035Z,71.33
2022-11-14T06:22:55.844Z,68.43
2022-11-14T06:25:24.054Z,69.43
2022-11-14T06:27:52.253Z,73.80
2022-11-14T06:30:21.144Z,69.17
2022-11-14T06:32:49.508Z,69.00
2022-11-14T06:35:17.864Z,74.50
2022-11-14T06:37:46.021Z,75.37
2022-11-14T06:40:16.017Z,72.10
2022-11-14T06:42:44.193Z,74.57
2022-11-14T06:45:12.760Z,77.13
2022-11-14T06:47:41.012Z,71.47
2022-11-14T06:50:10.282Z,71.20
2022-11-14T06:52:38.461Z,79.90
2022-11-14T06:55:07.794Z,79.20
2022-11-14T06:57:37.476Z,74.07
2022-11-14T07:00:07.157Z,68.43
2022-11-14T07:02:35.555Z,78.70
2022-11-14T07:05:03.796Z,71.57
2022-11-14T07:07:32.517Z,68.57
2022-11-14T07:10:00.770Z,66.47
2022-11-14T07:12:29.622Z,68.47
2022-11-14T07:14:59.206Z,69.87
2022-11-14T07:17:31.217Z,71.80
2022-11-14T07:19:59.655Z,68.47
2022-11-14T07:22:27.845Z,71.67
2022-11-14T07:24:55.989Z,66.17
2022-11-14T07:27:24.194Z,67.73
2022-11-14T07:29:52.332Z,70.30
2022-11-14T07:32:21.859Z,69.23
2022-11-14T07:34:50.036Z,74.00
2022-11-14T07:37:18.327Z,73.07
2022-11-14T07:39:47.122Z,71.77
2022-11-14T07:42:15.684Z,73.00
2022-11-14T07:44:44.060Z,71.57
2022-11-14T07:47:12.309Z,70.33
2022-11-14T07:49:42.097Z,67.57
2022-11-14T07:52:10.278Z,72.43
2022-11-14T07:54:38.419Z,66.50
2022-11-14T07:57:06.726Z,66.17
2022-11-14T07:59:34.932Z,70.00
2022-11-14T08:02:03.139Z,75.13
2022-11-14T08:04:31.383Z,71.57
2022-11-14T08:07:01.212Z,68.30
2022-11-14T08:09:29.616Z,70.33
2022-11-14T08:11:57.809Z,65.27
2022-11-14T08:14:25.977Z,68.47
2022-11-14T08:16:54.200Z,65.60
2022-11-14T08:19:22.373Z,61.33
2022-11-14T08:21:50.686Z,62.63
2022-11-14T08:24:20.222Z,64.43
2022-11-14T08:26:48.379Z,63.43
2022-11-14T08:29:16.566Z,61.20
2022-11-14T08:31:44.761Z,66.47
2022-11-14T08:34:12.988Z,62.50
2022-11-14T08:36:41.199Z,66.50
2022-11-14T08:39:09.373Z,60.70
2022-11-14T08:41:38.861Z,62.63
2022-11-14T08:44:07.389Z,62.13
2022-11-14T08:46:36.381Z,62.30
2022-11-14T08:49:04.613Z,64.17
2022-11-14T08:51:32.797Z,57.27
2022-11-14T08:54:00.998Z,61.40
2022-11-14T08:56:29.233Z,59.30
2022-11-14T08:58:58.823Z,61.20
2022-11-14T09:01:27.038Z,61.67
2022-11-14T09:03:59.662Z,60.67
2022-11-14T09:06:28.316Z,62.13
2022-11-14T09:08:57.703Z,61.17
2022-11-14T09:11:25.924Z,58.47
2022-11-14T09:13:54.098Z,58.93
2022-11-14T09:16:23.741Z,60.53
2022-11-14T09:18:52.207Z,57.67
2022-11-14T09:21:20.474Z,57.57
2022-11-14T09:23:49.409Z,58.33
2022-11-14T09:26:18.378Z,62.40
2022-11-14T09:28:46.892Z,60.83
2022-11-14T09:31:15.351Z,60.13
2022-11-14T09:33:44.934Z,53.57
2022-11-14T09:36:15.933Z,59.63
2022-11-14T09:38:44.667Z,59.50
2022-11-14T09:41:26.171Z,54.63
2022-11-14T09:44:34.039Z,54.13
2022-11-14T09:47:06.859Z,57.40
2022-11-14T09:49:40.130Z,56.43
2022-11-14T09:52:21.277Z,57.10
2022-11-14T09:54:55.972Z,55.77
2022-11-14T09:57:24.376Z,56.53
2022-11-14T09:59:52.981Z,56.33
2022-11-14T10:02:35.755Z,56.17
2022-11-14T10:05:23.503Z,52.33
2022-11-14T10:08:10.937Z,54.83
2022-11-14T10:10:51.636Z,59.03
2022-11-14T10:13:45.675Z,55.63
2022-11-14T10:16:20.045Z,57.27
2022-11-14T10:19:12.444Z,51.97
2022-11-14T10:22:00.252Z,57.77
2022-11-14T10:24:51.706Z,55.33
2022-11-14T10:27:25.333Z,57.03
2022-11-14T10:30:09.123Z,54.90
2022-11-14T10:33:11.845Z,55.03
2022-11-14T10:35:44.075Z,51.87
2022-11-14T10:38:21.484Z,53.27
2022-11-14T10:40:53.857Z,55.03
2022-11-14T10:43:28.626Z,48.13
2022-11-14T10:46:04.800Z,53.50
2022-11-14T10:48:37.312Z,52.57
2022-11-14T10:51:14.160Z,50.07
2022-11-14T10:53:54.347Z,50.27
2022-11-14T10:56:23.008Z,50.43
2022-11-14T10:58:51.262Z,51.37
2022-11-14T11:01:39.579Z,50.13
2022-11-14T11:04:21.620Z,51.67
2022-11-14T11:06:51.608Z,49.40
2022-11-14T11:09:45.507Z,45.50
2022-11-14T11:12:19.359Z,45.47
2022-11-14T11:14:50.129Z,46.83
2022-11-14T11:17:28.405Z,48.23
2022-11-14T11:20:34.092Z,47.07
2022-11-14T11:23:07.004Z,44.33
2022-11-14T11:25:37.634Z,43.80
2022-11-14T11:28:12.621Z,47.20
2022-11-14T11:30:41.437Z,46.93
2022-11-14T11:33:25.380Z,45.73
2022-11-14T11:35:57.642Z,43.43
2022-11-14T11:38:28.722Z,46.33
2022-11-14T11:41:15.437Z,47.17
2022-11-14T11:43:58.324Z,44.97
2022-11-14T11:46:33.700Z,46.23
2022-11-14T11:49:19.732Z,50.30
2022-11-14T11:51:50.963Z,48.83
2022-11-14T11:54:23.160Z,46.40
2022-11-14T11:56:58.789Z,46.67
2022-11-14T11:59:34.829Z,43.73
2022-11-14T12:02:13.335Z,46.17
2022-11-14T12:04:41.606Z,43.57
2022-11-14T12:07:15.769Z,40.87
2022-11-14T12:12:59.229Z,42.40
2022-11-14T12:15:38.941Z,43.50
2022-11-14T12:18:39.162Z,42.47
2022-11-14T12:21:14.299Z,45.13
2022-11-14T12:24:16.840Z,40.83
2022-11-14T12:26:58.704Z,42.77
2022-11-14T12:29:51.552Z,42.60
2022-11-14T12:32:28.566Z,42.97
2022-11-14T12:34:57.018Z,39.93
2022-11-14T12:37:33.696Z,40.97
2022-11-14T12:40:06.351Z,40.07
2022-11-14T12:42:35.317Z,39.13
2022-11-14T12:45:05.406Z,41.70
2022-11-14T12:47:33.691Z,38.17
2022-11-14T12:50:07.345Z,39.13
2022-11-14T12:52:49.845Z,38.17
2022-11-14T12:55:57.318Z,36.13
2022-11-14T12:58:47.275Z,35.70
2022-11-14T13:01:49.689Z,36.20
2022-11-14T13:04:33.229Z,31.97
2022-11-14T13:07:32.779Z,33.47
2022-11-14T13:10:14.685Z,32.73
2022-11-14T13:13:01.943Z,33.53
2022-11-14T13:15:51.158Z,33.17
2022-11-14T13:18:43.634Z,32.83
2022-11-14T13:21:45.048Z,33.30
2022-11-14T13:24:16.232Z,35.30
2022-11-14T13:26:50.925Z,32.80
2022-11-14T13:29:56.166Z,35.23
2022-11-14T13:33:07.667Z,33.90
2022-11-14T13:36:02.191Z,34.47
2022-11-14T13:39:08.406Z,31.87
2022-11-14T13:42:23.550Z,34.97
2022-11-14T13:45:42.022Z,34.30
2022-11-14T13:48:48.416Z,34.90
2022-11-14T13:54:17.515Z,36.73
2022-11-14T13:57:00.927Z,34.77
2022-11-14T13:59:51.499Z,34.13
2022-11-14T14:02:58.865Z,32.90
2022-11-14T14:05:39.117Z,32.93
2022-11-14T14:08:22.968Z,32.63
2022-11-14T14:11:07.205Z,45.30
2022-11-14T14:13:52.490Z,34.77
2022-11-14T14:16:36.175Z,36.80
2022-11-14T14:19:14.058Z,34.27
2022-11-14T14:21:50.176Z,33.63
2022-11-14T14:24:43.028Z,35.57
2022-11-14T14:27:21.804Z,35.67
2022-11-14T14:30:02.913Z,34.00
2022-11-14T14:32:31.125Z,35.87
2022-11-14T14:35:00.625Z,32.90
2022-11-14T14:37:30.738Z,36.27
2022-11-14T14:40:03.262Z,35.33
2022-11-14T14:42:40.363Z,38.30
2022-11-14T14:45:17.824Z,37.67
2022-11-14T14:47:48.572Z,34.13
2022-11-14T14:50:21.184Z,37.23
2022-11-14T14:52:57.999Z,38.40
2022-11-14T14:55:30.510Z,40.23
2022-11-14T14:58:22.069Z,39.73
2022-11-14T15:00:55.276Z,39.87
2022-11-14T15:03:25.907Z,37.57
2022-11-14T15:06:00.970Z,36.03
2022-11-14T15:08:31.480Z,38.67
2022-11-14T15:11:02.711Z,40.33
2022-11-14T15:13:32.131Z,39.93
2022-11-14T15:16:01.810Z,38.50
2022-11-14T15:18:33.093Z,35.80
2022-11-14T15:21:16.410Z,36.57
2022-11-14T15:23:44.887Z,35.67
2022-11-14T15:26:18.161Z,38.37
2022-11-14T15:28:46.804Z,38.30
2022-11-14T15:31:20.561Z,36.63
2022-11-14T15:34:03.206Z,37.87
2022-11-14T15:36:31.517Z,38.77
2022-11-14T15:39:02.829Z,35.93
2022-11-14T15:41:33.154Z,39.67
2022-11-14T15:44:05.527Z,40.30
2022-11-14T15:46:43.961Z,39.97
2022-11-14T15:49:22.772Z,41.07
2022-11-14T15:51:56.281Z,38.23
2022-11-14T15:54:30.813Z,42.73
2022-11-14T15:57:02.786Z,40.87
2022-11-14T15:59:31.971Z,35.90
2022-11-14T16:02:05.795Z,40.20
2022-11-14T16:04:37.142Z,40.73
2022-11-14T16:07:06.088Z,46.20
2022-11-14T16:09:34.364Z,41.33
2022-11-14T16:12:04.214Z,39.83
2022-11-14T16:14:42.641Z,44.93
2022-11-14T16:17:15.393Z,41.67
2022-11-14T16:19:43.928Z,41.63
2022-11-14T16:22:15.731Z,39.53
2022-11-14T16:24:43.886Z,42.00
2022-11-14T16:27:13.458Z,44.10
2022-11-14T16:29:41.660Z,42.93
2022-11-14T16:32:11.674Z,41.97
2022-11-14T16:34:39.974Z,40.27
2022-11-14T16:37:12.698Z,38.47
2022-11-14T16:39:41.289Z,43.07
2022-11-14T16:42:13.231Z,39.90
2022-11-14T16:44:46.334Z,38.97
2022-11-14T16:47:19.848Z,38.57
2022-11-14T16:49:48.018Z,41.83
2022-11-14T16:52:17.100Z,39.77
2022-11-14T16:54:45.275Z,39.10
2022-11-14T16:57:14.827Z,43.43
2022-11-14T16:59:43.092Z,42.27
2022-11-14T17:02:16.118Z,41.80
2022-11-14T17:04:45.098Z,43.43
2022-11-14T17:07:15.116Z,41.00
2022-11-14T17:09:44.925Z,42.30
2022-11-14T17:12:14.490Z,46.27
2022-11-14T17:14:42.599Z,41.83
2022-11-14T17:17:10.829Z,41.67
2022-11-14T17:19:45.659Z,42.17
2022-11-14T17:22:14.044Z,45.37
2022-11-14T17:24:42.523Z,46.93
2022-11-14T17:27:12.878Z,64.77
2022-11-14T17:29:42.594Z,80.00
2022-11-14T17:32:10.993Z,70.67
2022-11-14T17:34:39.209Z,87.73
2022-11-14T17:37:07.405Z,90.30
2022-11-14T17:39:35.641Z,95.00
2022-11-14T17:42:03.876Z,81.03
2022-11-14T17:44:32.188Z,75.30
2022-11-14T17:47:04.310Z,97.17
2022-11-14T17:49:33.216Z,69.23
2022-11-14T17:52:01.478Z,53.83
2022-11-14T17:54:31.307Z,54.57
2022-11-14T17:56:59.987Z,70.80
2022-11-14T17:59:28.206Z,67.37
2022-11-14T18:02:01.062Z,101.33
2022-11-14T18:04:31.865Z,112.43
2022-11-14T18:07:01.736Z,138.53
2022-11-14T18:09:32.389Z,124.87
2022-11-14T18:12:01.826Z,72.43
2022-11-14T18:14:32.620Z,74.43
2022-11-14T18:17:16.283Z,98.43
2022-11-14T18:19:46.004Z,118.27
2022-11-14T18:22:14.179Z,97.90
2022-11-14T18:24:47.188Z,71.33
2022-11-14T18:27:16.368Z,57.27
2022-11-14T18:29:44.637Z,59.13
2022-11-14T18:32:12.894Z,69.13
2022-11-14T18:34:41.978Z,71.50
2022-11-14T18:37:11.644Z,61.63
2022-11-14T18:39:39.795Z,78.37
2022-11-14T18:42:08.052Z,74.07
2022-11-14T18:44:36.319Z,77.70
2022-11-14T18:47:04.526Z,58.00
2022-11-14T18:49:32.768Z,70.10
2022-11-14T18:52:05.476Z,83.33
2022-11-14T18:54:40.141Z,78.37
2022-11-14T18:57:08.401Z,70.07
2022-11-14T18:59:36.962Z,76.57
2022-11-14T19:02:05.381Z,112.77
2022-11-14T19:04:33.995Z,77.30
2022-11-14T19:07:02.274Z,92.70
2022-11-14T19:09:31.187Z,92.37
2022-11-14T19:12:18.362Z,105.77
2022-11-14T19:14:46.909Z,123.43
2022-11-14T19:17:18.707Z,91.57
2022-11-14T19:19:46.924Z,66.50
2022-11-14T19:22:15.167Z,54.57
2022-11-14T19:24:43.481Z,54.63
2022-11-14T19:27:13.518Z,56.77
2022-11-14T19:29:41.853Z,66.40
2022-11-14T19:32:10.137Z,53.50
2022-11-14T19:34:38.611Z,62.97
2022-11-14T19:37:08.458Z,59.47
2022-11-14T19:39:36.747Z,52.07
2022-11-14T19:42:05.260Z,55.87
2022-11-14T19:44:35.565Z,50.73
2022-11-14T19:47:03.824Z,47.67
2022-11-14T19:49:32.161Z,50.23
2022-11-14T19:52:00.432Z,50.47
2022-11-14T19:54:28.725Z,49.10
2022-11-14T19:56:57.055Z,50.97
2022-11-14T19:59:27.857Z,48.17
2022-11-14T20:01:57.588Z,50.40
2022-11-14T20:04:28.599Z,50.33
2022-11-14T20:06:57.543Z,48.67
2022-11-14T20:09:25.948Z,49.53
2022-11-14T20:11:54.242Z,48.03
2022-11-14T20:14:22.488Z,43.27
2022-11-14T20:16:51.096Z,44.20
2022-11-14T20:19:20.808Z,47.00
2022-11-14T20:21:50.614Z,44.67
2022-11-14T20:24:21.638Z,45.87
2022-11-14T20:26:49.898Z,44.33
2022-11-14T20:29:18.182Z,45.23
2022-11-14T20:31:46.395Z,45.30
2022-11-14T20:34:14.911Z,43.93
2022-11-14T20:37:09.305Z,45.27
2022-11-14T20:39:33.002Z,45.10
2022-11-14T20:42:01.464Z,47.50
2022-11-14T20:44:29.803Z,46.73
2022-11-14T20:46:58.032Z,43.00
2022-11-14T20:49:26.377Z,47.23
2022-11-14T20:51:55.942Z,43.53
2022-11-14T20:54:25.464Z,42.13
2022-11-14T20:56:53.677Z,45.00
2022-11-14T20:59:22.111Z,42.37
2022-11-14T21:01:50.853Z,39.90
2022-11-14T21:04:19.376Z,43.70
2022-11-14T21:06:47.676Z,40.00
2022-11-14T21:09:17.670Z,42.97
2022-11-14T21:11:45.980Z,40.87
2022-11-14T21:14:14.539Z,43.87
2022-11-14T21:16:42.832Z,44.83
2022-11-14T21:19:11.163Z,43.30
2022-11-14T21:21:39.750Z,40.20
2022-11-14T21:24:08.972Z,42.53
2022-11-14T21:26:40.805Z,43.13
2022-11-14T21:29:16.134Z,41.07
2022-11-14T21:31:46.669Z,41.97
2022-11-14T21:34:18.143Z,40.40
2022-11-14T21:36:47.329Z,41.70
2022-11-14T21:39:17.714Z,39.63
2022-11-14T21:41:49.331Z,38.50
2022-11-14T21:44:18.953Z,40.10
2022-11-14T21:46:48.651Z,41.20
2022-11-14T21:49:17.346Z,40.27
2022-11-14T21:51:45.804Z,42.80
2022-11-14T21:54:14.091Z,39.13
2022-11-14T21:56:42.366Z,41.37
2022-11-14T21:59:18.796Z,42.57
2022-11-14T22:02:08.069Z,42.07
2022-11-14T22:04:37.524Z,42.17
2022-11-14T22:07:09.112Z,41.20
2022-11-14T22:09:42.533Z,41.10
2022-11-14T22:12:13.372Z,39.67
2022-11-14T22:14:42.994Z,39.13
2022-11-14T22:17:11.294Z,39.97
2022-11-14T22:19:39.564Z,40.33
2022-11-14T22:22:08.075Z,38.07
2022-11-14T22:24:36.436Z,40.77
2022-11-14T22:27:04.799Z,38.00
2022-11-14T22:29:33.072Z,38.57
2022-11-14T22:32:02.654Z,37.50
2022-11-14T22:34:30.929Z,39.50
2022-11-14T22:37:00.007Z,38.40
2022-11-14T22:39:28.374Z,38.43
2022-11-14T22:41:56.583Z,37.80
2022-11-14T22:44:24.901Z,37.70
2022-11-14T22:46:53.134Z,37.17
2022-11-14T22:49:22.750Z,40.33
2022-11-14T22:51:51.052Z,41.33
2022-11-14T22:54:20.861Z,37.93
2022-11-14T22:56:49.152Z,37.40
2022-11-14T22:59:17.403Z,38.23
2022-11-14T23:01:45.757Z,38.37
2022-11-14T23:04:14.206Z,34.40
2022-11-14T23:06:44.196Z,37.83
2022-11-14T23:09:12.672Z,37.07
2022-11-14T23:11:41.098Z,39.13
2022-11-14T23:14:12.924Z,34.27
2022-11-14T23:16:41.097Z,36.97
2022-11-14T23:19:09.680Z,32.77
2022-11-14T23:21:38.974Z,36.47
2022-11-14T23:24:14.949Z,35.57
2022-11-14T23:26:43.275Z,35.03
2022-11-14T23:29:15.076Z,38.97
2022-11-14T23:31:43.321Z,33.33
2022-11-14T23:34:11.492Z,34.23
2022-11-14T23:36:39.744Z,38.00
2022-11-14T23:39:09.343Z,35.80
2022-11-14T23:41:37.538Z,37.17
2022-11-14T23:44:06.207Z,34.33
2022-11-14T23:46:34.445Z,37.07
2022-11-14T23:49:02.955Z,37.00
2022-11-14T23:51:31.131Z,34.13
2022-11-14T23:53:59.429Z,35.83
2022-11-14T23:56:29.008Z,37.43
2022-11-14T23:58:57.988Z,40.20
